^^
Saratoga-Weather Station Historical Data
Daily Summary for August 7, 2021 Units:  English    Metric   Both
Daily Weekly Monthly Yearly Custom
  High: Low: Average:
Temperature: 56.7 °F 39.9 °F 48.2 °F
Dew Point: 42.4 °F 33.6 °F 37.9 °F
Humidity: 93% 44% 70%
Wind Speed: 13mph 0mph 3.9mph
Wind Gust: 18mph - -
Wind- - West
Pressure: 30.1 in 29.8 in -
Precipitation: 0 in    
Historical Graphs
 
 
Tabular Data for August 7, 2021
Time Temperature Dew Point Pressure Wind Wind Speed Wind Gust Humidity Rainfall Rate (Hourly) solar
00:03 43.9 °F 41.9 °F 29.8 in WNW 6.9 mph 7 mph 93% 0 in 0 W/m2
00:08 43.9 °F 41.9 °F 29.8 in West 6 mph 7 mph 93% 0 in 0 W/m2
00:13 43.9 °F 41.9 °F 29.8 in West 2.9 mph 6 mph 93% 0 in 0 W/m2
00:18 43.9 °F 41.9 °F 29.8 in WNW 2 mph 4 mph 93% 0 in 0 W/m2
00:23 43.7 °F 41.7 °F 29.8 in West 2 mph 4 mph 93% 0 in 0 W/m2
00:28 43.7 °F 41.7 °F 29.8 in WSW 2 mph 5 mph 93% 0 in 0 W/m2
00:33 43.7 °F 41.7 °F 29.8 in WNW 2 mph 6 mph 93% 0 in 0 W/m2
00:38 43.7 °F 41.7 °F 29.8 in WSW 2.9 mph 6 mph 93% 0 in 0 W/m2
00:43 43.7 °F 41.7 °F 29.8 in West 2 mph 5 mph 93% 0 in 0 W/m2
00:48 43.7 °F 41.7 °F 29.8 in West 2.9 mph 6 mph 93% 0 in 0 W/m2
00:53 43.9 °F 41.9 °F 29.8 in WNW 0.9 mph 2 mph 93% 0 in 0 W/m2
00:58 43.7 °F 41.7 °F 29.8 in WNW 2.9 mph 4 mph 93% 0 in 0 W/m2
01:03 43.7 °F 41.7 °F 29.8 in WNW 2 mph 3 mph 93% 0 in 0 W/m2
01:08 43.7 °F 41.7 °F 29.8 in WSW 2.9 mph 3 mph 93% 0 in 0 W/m2
01:13 43.7 °F 41.7 °F 29.8 in West 4 mph 6 mph 93% 0 in 0 W/m2
01:18 43.7 °F 41.7 °F 29.8 in WSW 0.9 mph 4 mph 93% 0 in 0 W/m2
01:23 43.7 °F 41.7 °F 29.8 in West 2 mph 5 mph 93% 0 in 0 W/m2
01:28 43.5 °F 41.7 °F 29.8 in West 2.9 mph 3 mph 93% 0 in 0 W/m2
01:33 43.5 °F 41.7 °F 29.8 in WNW 2 mph 4 mph 93% 0 in 0 W/m2
01:38 43.5 °F 41.7 °F 29.8 in Calm   2 mph 93% 0 in 0 W/m2
01:43 43.5 °F 41.7 °F 29.8 in West 2 mph 4 mph 93% 0 in 0 W/m2
01:48 43.5 °F 41.7 °F 29.8 in WNW 0.9 mph 4 mph 93% 0 in 0 W/m2
01:53 43.5 °F 41.7 °F 29.8 in West 2 mph 4 mph 93% 0 in 0 W/m2
01:58 43.5 °F 41.7 °F 29.8 in WNW 4 mph 7 mph 93% 0 in 0 W/m2
02:03 43.5 °F 41.7 °F 29.8 in WSW 2 mph 7 mph 93% 0 in 0 W/m2
02:08 43.5 °F 41.7 °F 29.8 in West 2.9 mph 5 mph 93% 0 in 0 W/m2
02:13 43.5 °F 41.7 °F 29.8 in WNW 2.9 mph 7 mph 93% 0 in 0 W/m2
02:18 43.3 °F 41.5 °F 29.8 in SW 2.9 mph 4 mph 93% 0 in 0 W/m2
02:23 43.3 °F 41.5 °F 29.8 in WSW 4 mph 5 mph 93% 0 in 0 W/m2
02:28 43.3 °F 41.5 °F 29.8 in West 2.9 mph 6 mph 93% 0 in 0 W/m2
02:33 43.3 °F 41.5 °F 29.8 in WNW 2.9 mph 6 mph 93% 0 in 0 W/m2
02:38 43.5 °F 41.7 °F 29.8 in West 6 mph 6 mph 93% 0 in 0 W/m2
02:43 43.5 °F 41.7 °F 29.8 in West 0.9 mph 6 mph 93% 0 in 0 W/m2
02:48 43.5 °F 41.7 °F 29.8 in West 2 mph 3 mph 93% 0 in 0 W/m2
02:53 43.5 °F 41.7 °F 29.8 in WSW 2.9 mph 10 mph 93% 0 in 0 W/m2
02:58 43.5 °F 41.7 °F 29.8 in WSW 2 mph 4 mph 93% 0 in 0 W/m2
03:03 43.5 °F 41.7 °F 29.8 in WNW 2.9 mph 10 mph 93% 0 in 0 W/m2
03:08 43.5 °F 41.7 °F 29.8 in SW 6.9 mph 9 mph 93% 0 in 0 W/m2
05:13 41.4 °F 38.3 °F 29.8 in West 2.9 mph 6 mph 89% 0 in 0 W/m2
05:18 41.4 °F 38.3 °F 29.8 in WSW 4 mph 7 mph 89% 0 in 0 W/m2
05:23 41.2 °F 38.1 °F 29.8 in West 2 mph 3 mph 89% 0 in 0 W/m2
05:28 41 °F 38.3 °F 29.8 in West 2 mph 7 mph 90% 0 in 0 W/m2
05:33 40.8 °F 38.1 °F 29.8 in WSW 2 mph 4 mph 90% 0 in 0 W/m2
05:38 40.8 °F 38.1 °F 29.8 in West 2.9 mph 4 mph 90% 0 in 0 W/m2
05:43 40.6 °F 37.9 °F 29.8 in West 4 mph 4 mph 90% 0 in 0 W/m2
05:48 40.5 °F 37.8 °F 29.8 in WNW 2.9 mph 5 mph 90% 0 in 0 W/m2
05:53 40.5 °F 37.8 °F 29.8 in West 2 mph 4 mph 90% 0 in 0 W/m2
05:58 40.3 °F 37.6 °F 29.8 in WNW 2.9 mph 4 mph 90% 0 in 0 W/m2
06:03 40.3 °F 37.6 °F 29.8 in West 2.9 mph 3 mph 90% 0 in 0 W/m2
06:08 40.3 °F 37.6 °F 29.8 in West 0.9 mph 5 mph 90% 0 in 5 W/m2
06:13 40.3 °F 37.9 °F 29.8 in West 0.9 mph 4 mph 91% 0 in 7 W/m2
06:18 40.1 °F 37.8 °F 29.9 in West 2.9 mph 3 mph 91% 0 in 9 W/m2
06:23 40.1 °F 37.8 °F 29.9 in West 2.9 mph 4 mph 91% 0 in 11 W/m2
06:28 40.1 °F 37.8 °F 29.9 in WSW 2.9 mph 4 mph 91% 0 in 12 W/m2
06:33 39.9 °F 37.6 °F 29.9 in WNW 4 mph 6 mph 91% 0 in 14 W/m2
06:38 39.9 °F 37.6 °F 29.9 in West 4 mph 6 mph 91% 0 in 18 W/m2
06:43 39.9 °F 37.8 °F 29.9 in West 2.9 mph 6 mph 92% 0 in 21 W/m2
06:48 39.9 °F 37.8 °F 29.9 in WSW 8.1 mph 8 mph 92% 0 in 25 W/m2
06:53 39.9 °F 37.8 °F 29.9 in West 2.9 mph 4 mph 92% 0 in 26 W/m2
06:58 40.1 °F 37.9 °F 29.9 in West 6 mph 7 mph 92% 0 in 28 W/m2
07:03 40.3 °F 38.1 °F 29.9 in West 4 mph 7 mph 92% 0 in 30 W/m2
07:08 40.3 °F 38.1 °F 29.9 in NW 4.9 mph 9 mph 92% 0 in 35 W/m2
07:13 40.5 °F 38.3 °F 29.9 in WNW 4 mph 13 mph 92% 0 in 88 W/m2
07:18 40.3 °F 38.1 °F 29.9 in WNW 4.9 mph 12 mph 92% 0 in 90 W/m2
07:23 40.3 °F 38.1 °F 29.9 in WSW 6 mph 10 mph 92% 0 in 79 W/m2
07:28 40.3 °F 38.1 °F 29.9 in WNW 4 mph 8 mph 92% 0 in 77 W/m2
07:33 40.1 °F 37.9 °F 29.9 in WNW 2.9 mph 9 mph 92% 0 in 79 W/m2
07:38 40.3 °F 38.1 °F 29.9 in WNW 2 mph 8 mph 92% 0 in 62 W/m2
07:43 40.3 °F 38.1 °F 29.9 in WNW 2.9 mph 7 mph 92% 0 in 56 W/m2
07:48 40.5 °F 38.1 °F 29.9 in West 4 mph 10 mph 91% 0 in 49 W/m2
07:53 40.8 °F 38.5 °F 29.9 in West 6.9 mph 9 mph 91% 0 in 53 W/m2
07:59 41.2 °F 38.8 °F 29.9 in WSW 2.9 mph 7 mph 91% 0 in 53 W/m2
08:04 41.4 °F 38.7 °F 29.9 in NW 4.9 mph 9 mph 90% 0 in 53 W/m2
08:09 41.7 °F 39 °F 29.9 in WNW 6.9 mph 7 mph 90% 0 in 53 W/m2
08:14 42.1 °F 39.4 °F 29.9 in WNW 2.9 mph 3 mph 90% 0 in 54 W/m2
08:19 42.3 °F 39.2 °F 29.9 in West 6 mph 6 mph 89% 0 in 58 W/m2
08:24 42.3 °F 39 °F 29.9 in WNW 2.9 mph 8 mph 88% 0 in 54 W/m2
08:29 42.4 °F 38.8 °F 29.9 in NW 4 mph 7 mph 87% 0 in 58 W/m2
08:34 42.6 °F 39 °F 29.9 in WNW 4 mph 6 mph 87% 0 in 60 W/m2
08:39 43.2 °F 39.6 °F 29.9 in WSW 2.9 mph 5 mph 87% 0 in 98 W/m2
08:44 43.5 °F 39.9 °F 29.9 in NW 0.9 mph 4 mph 87% 0 in 251 W/m2
08:49 44.1 °F 40.1 °F 29.9 in West 6.9 mph 7 mph 86% 0 in 350 W/m2
08:54 44.1 °F 39.9 °F 29.9 in West 4 mph 8 mph 85% 0 in 364 W/m2
08:59 44.2 °F 40.1 °F 29.9 in West 6.9 mph 7 mph 85% 0 in 381 W/m2
09:04 44.4 °F 39.9 °F 29.9 in NW 4 mph 6 mph 84% 0 in 396 W/m2
09:09 44.8 °F 40.3 °F 29.9 in NW 4.9 mph 10 mph 84% 0 in 406 W/m2
09:14 44.8 °F 39.9 °F 29.9 in West 6 mph 11 mph 83% 0 in 427 W/m2
09:19 45.1 °F 40.3 °F 29.9 in WNW 6.9 mph 9 mph 83% 0 in 443 W/m2
09:24 45.3 °F 40.1 °F 29.9 in WSW 4 mph 12 mph 82% 0 in 448 W/m2
09:29 45.5 °F 40.3 °F 29.9 in WSW 4.9 mph 8 mph 82% 0 in 473 W/m2
09:34 45.9 °F 40.3 °F 29.9 in WNW 2 mph 10 mph 81% 0 in 464 W/m2
09:39 46.4 °F 41.2 °F 29.9 in WNW 4 mph 8 mph 82% 0 in 88 W/m2
09:44 46.2 °F 40.5 °F 29.9 in West 0.9 mph 11 mph 80% 0 in 121 W/m2
09:49 46.8 °F 41 °F 29.9 in WNW 10.1 mph 12 mph 80% 0 in 527 W/m2
09:54 46.8 °F 41 °F 29.9 in WSW 6.9 mph 10 mph 80% 0 in 575 W/m2
09:59 46.9 °F 41.2 °F 29.9 in WNW 4.9 mph 7 mph 80% 0 in 617 W/m2
10:04 47.1 °F 41 °F 29.9 in West 4 mph 9 mph 79% 0 in 680 W/m2
10:09 47.5 °F 41.5 °F 29.9 in West 8.9 mph 9 mph 80% 0 in 640 W/m2
10:14 47.8 °F 41.9 °F 29.9 in WNW 4 mph 7 mph 80% 0 in 631 W/m2
10:19 48.4 °F 42.4 °F 29.9 in WNW 4.9 mph 7 mph 80% 0 in 696 W/m2
10:24 48.4 °F 41.2 °F 29.9 in West 8.1 mph 14 mph 76% 0 in 671 W/m2
10:29 48 °F 40.5 °F 29.9 in West 8.1 mph 13 mph 75% 0 in 671 W/m2
10:34 48 °F 40.5 °F 30 in West 6 mph 11 mph 75% 0 in 671 W/m2
10:39 48.4 °F 40.8 °F 30 in WNW 6.9 mph 15 mph 75% 0 in 207 W/m2
10:44 48 °F 40.8 °F 30 in West 8.9 mph 9 mph 76% 0 in 127 W/m2
10:49 47.8 °F 40.3 °F 30 in West 6.9 mph 13 mph 75% 0 in 737 W/m2
10:54 48 °F 39.7 °F 30 in WNW 11 mph 17 mph 73% 0 in 724 W/m2
10:59 48.4 °F 40.1 °F 30 in WNW 13 mph 18 mph 73% 0 in 851 W/m2
11:04 48.7 °F 39.7 °F 30 in WSW 8.1 mph 13 mph 71% 0 in 874 W/m2
11:09 48.6 °F 38.5 °F 30 in WSW 12.1 mph 18 mph 68% 0 in 139 W/m2
11:14 48 °F 39 °F 30 in West 6.9 mph 14 mph 71% 0 in 840 W/m2
11:19 48.4 °F 39 °F 30 in West 8.1 mph 16 mph 70% 0 in 796 W/m2
11:24 48.6 °F 39.2 °F 30 in WSW 10.1 mph 12 mph 70% 0 in 865 W/m2
11:29 49.1 °F 39 °F 30 in WNW 6.9 mph 14 mph 68% 0 in 969 W/m2
11:34 48.7 °F 38.7 °F 30 in West 8.1 mph 12 mph 68% 0 in 236 W/m2
11:39 48.7 °F 39 °F 30 in West 6.9 mph 12 mph 69% 0 in 860 W/m2
11:44 48.6 °F 38.5 °F 30 in West 6.9 mph 16 mph 68% 0 in 826 W/m2
11:49 49.3 °F 38.8 °F 30 in West 12.1 mph 15 mph 67% 0 in 912 W/m2
11:54 49.5 °F 37.4 °F 30 in NNW 10.1 mph 11 mph 63% 0 in 271 W/m2
11:59 49.3 °F 35.6 °F 30 in NW 8.9 mph 15 mph 59% 0 in 141 W/m2
12:04 49.3 °F 36.9 °F 30 in WSW 8.9 mph 14 mph 62% 0 in 916 W/m2
12:09 49.6 °F 37.2 °F 30 in West 8.1 mph 14 mph 62% 0 in 1020 W/m2
12:14 49.8 °F 37.4 °F 30 in West 6 mph 13 mph 62% 0 in 316 W/m2
12:19 50 °F 37.9 °F 30 in WSW 6.9 mph 13 mph 63% 0 in 387 W/m2
12:24 49.5 °F 37 °F 30 in West 10.1 mph 12 mph 62% 0 in 251 W/m2
12:29 49.5 °F 37.4 °F 30 in WSW 11 mph 14 mph 63% 0 in 888 W/m2
12:54 50.4 °F 38.7 °F 30 in West 8.1 mph 14 mph 64% 0 in 323 W/m2
12:59 50.5 °F 38.5 °F 30 in West 6 mph 12 mph 63% 0 in 323 W/m2
13:04 50.5 °F 39.2 °F 30 in NW 4.9 mph 12 mph 65% 0 in 459 W/m2
13:09 51.1 °F 38.8 °F 30 in WSW 4.9 mph 16 mph 63% 0 in 990 W/m2
13:14 51.4 °F 37.2 °F 30 in West 4 mph 7 mph 58% 0 in 977 W/m2
13:19 51.1 °F 36.3 °F 30 in West 6.9 mph 13 mph 57% 0 in 188 W/m2
13:24 51.4 °F 35.8 °F 30 in West 8.9 mph 12 mph 55% 0 in 1102 W/m2
13:29 51.3 °F 35.2 °F 30 in West 6 mph 8 mph 54% 0 in 371 W/m2
13:34 51.4 °F 36.7 °F 30 in WSW 10.1 mph 12 mph 57% 0 in 1037 W/m2
13:39 51.6 °F 36.9 °F 30 in West 6.9 mph 8 mph 57% 0 in 209 W/m2
13:51 52.9 °F 37.6 °F 30 in North 2.9 mph 9 mph 56% 0 in 993 W/m2
13:56 53.1 °F 37.8 °F 30 in West 2.9 mph 10 mph 56% 0 in 1078 W/m2
14:01 52.9 °F 37.6 °F 30 in NW 2.9 mph 10 mph 56% 0 in 991 W/m2
14:06 53.2 °F 37.4 °F 30 in West 2.9 mph 7 mph 55% 0 in 1092 W/m2
14:11 53.8 °F 36.5 °F 30 in NW 8.9 mph 11 mph 52% 0 in 1118 W/m2
14:16 53.2 °F 35.6 °F 30 in West 6.9 mph 10 mph 51% 0 in 1065 W/m2
14:21 53.2 °F 36.5 °F 30 in WSW 4.9 mph 7 mph 53% 0 in 1051 W/m2
14:26 53.4 °F 37.2 °F 30 in WSW 8.1 mph 14 mph 54% 0 in 1065 W/m2
14:31 53.8 °F 36.1 °F 30 in WSW 4.9 mph 10 mph 51% 0 in 1079 W/m2
14:36 53.8 °F 36.5 °F 30 in West 6.9 mph 13 mph 52% 0 in 265 W/m2
14:41 53.4 °F 36.7 °F 30 in North 8.9 mph 12 mph 53% 0 in 1034 W/m2
14:46 53.4 °F 36.7 °F 30 in WNW 4.9 mph 13 mph 53% 0 in 179 W/m2
14:51 53.2 °F 36.5 °F 30 in NW 8.1 mph 9 mph 53% 0 in 243 W/m2
14:56 53.6 °F 36.9 °F 30 in WNW 2.9 mph 9 mph 53% 0 in 1005 W/m2
15:01 54.1 °F 37.4 °F 30 in WSW 10.1 mph 14 mph 53% 0 in 954 W/m2
15:06 54.1 °F 36.9 °F 30 in SW 4.9 mph 8 mph 52% 0 in 1028 W/m2
15:11 54.3 °F 36.5 °F 30 in West 4 mph 6 mph 51% 0 in 1032 W/m2
15:16 54.1 °F 36 °F 30 in NW 2 mph 11 mph 50% 0 in 265 W/m2
15:21 54 °F 36.3 °F 30 in NW 2.9 mph 10 mph 51% 0 in 267 W/m2
15:26 53.8 °F 36.1 °F 30 in West 6 mph 8 mph 51% 0 in 265 W/m2
15:31 53.8 °F 35.6 °F 30 in West 2 mph 10 mph 50% 0 in 287 W/m2
15:36 54 °F 36.7 °F 30 in West 4 mph 9 mph 52% 0 in 188 W/m2
15:41 53.8 °F 35.6 °F 30 in North 2 mph 5 mph 50% 0 in 919 W/m2
15:46 54.1 °F 35.4 °F 30 in North 2 mph 8 mph 49% 0 in 947 W/m2
15:51 54.7 °F 36.9 °F 30 in West 2 mph 6 mph 51% 0 in 912 W/m2
15:56 55.4 °F 36.5 °F 30 in WNW 6 mph 7 mph 49% 0 in 872 W/m2
16:01 55.9 °F 36 °F 30 in NW 4.9 mph 10 mph 47% 0 in 874 W/m2
16:06 56.1 °F 35.6 °F 30 in West 4 mph 11 mph 46% 0 in 846 W/m2
16:11 55.8 °F 35.2 °F 30 in NW 2.9 mph 10 mph 46% 0 in 870 W/m2
16:16 55.9 °F 36 °F 30 in WNW 2.9 mph 6 mph 47% 0 in 570 W/m2
16:21 56.1 °F 35.1 °F 30 in West 6.9 mph 8 mph 45% 0 in 900 W/m2
16:26 56.5 °F 36.5 °F 30 in WNW 4 mph 11 mph 47% 0 in 830 W/m2
16:31 55.8 °F 35.2 °F 30 in West 6.9 mph 13 mph 46% 0 in 835 W/m2
16:36 55.2 °F 33.6 °F 30 in NNW 2.9 mph 11 mph 44% 0 in 121 W/m2
16:41 55 °F 34.2 °F 30 in WNW 8.1 mph 8 mph 45% 0 in 791 W/m2
16:46 55.8 °F 34.7 °F 30 in WNW 4 mph 9 mph 45% 0 in 768 W/m2
16:51 56.1 °F 35.1 °F 30 in West 6.9 mph 9 mph 45% 0 in 795 W/m2
16:56 56.3 °F 34.7 °F 30 in West 10.1 mph 10 mph 44% 0 in 798 W/m2
17:01 56.1 °F 34.5 °F 30 in WNW 6.9 mph 8 mph 44% 0 in 756 W/m2
17:06 56.1 °F 35.6 °F 30.1 in WNW 4 mph 13 mph 46% 0 in 693 W/m2
17:11 56.1 °F 35.6 °F 30.1 in WNW 4 mph 9 mph 46% 0 in 654 W/m2
17:16 55.9 °F 35.4 °F 30.1 in West 8.9 mph 13 mph 46% 0 in 640 W/m2
17:21 56.1 °F 34.5 °F 30.1 in West 0.9 mph 8 mph 44% 0 in 633 W/m2
17:27 56.5 °F 35.4 °F 30.1 in West 8.1 mph 12 mph 45% 0 in 640 W/m2
17:32 56.1 °F 35.1 °F 30.1 in WNW 4.9 mph 10 mph 45% 0 in 622 W/m2
17:37 55.9 °F 34.3 °F 30.1 in West 4 mph 12 mph 44% 0 in 104 W/m2
17:42 55.4 °F 34.9 °F 30.1 in West 6 mph 8 mph 46% 0 in 148 W/m2
17:47 55.4 °F 34.3 °F 30.1 in NW 2.9 mph 5 mph 45% 0 in 605 W/m2
17:52 56.1 °F 35.6 °F 30.1 in Calm   8 mph 46% 0 in 596 W/m2
17:57 56.7 °F 35.1 °F 30.1 in WNW 4 mph 9 mph 44% 0 in 111 W/m2
18:02 55.9 °F 34.9 °F 30.1 in WSW 2.9 mph 10 mph 45% 0 in 113 W/m2
18:07 55 °F 34.7 °F 30.1 in WNW 4 mph 7 mph 46% 0 in 158 W/m2
18:12 55.2 °F 35.4 °F 30.1 in NW 2 mph 10 mph 47% 0 in 550 W/m2
18:17 55.6 °F 35.1 °F 30.1 in NNW 0.9 mph 3 mph 46% 0 in 313 W/m2
18:22 56.1 °F 36.7 °F 30.1 in West 2 mph 7 mph 48% 0 in 497 W/m2
18:27 56.5 °F 34.9 °F 30.1 in WNW 4 mph 8 mph 44% 0 in 125 W/m2
18:32 55.6 °F 34 °F 30.1 in NW 2.9 mph 8 mph 44% 0 in 139 W/m2
18:37 55 °F 34.7 °F 30.1 in West 8.9 mph 9 mph 46% 0 in 98 W/m2
18:42 55 °F 34.7 °F 30.1 in WSW 4.9 mph 8 mph 46% 0 in 378 W/m2
18:47 55.8 °F 35.2 °F 30.1 in WNW 6.9 mph 8 mph 46% 0 in 346 W/m2
18:52 55.8 °F 35.2 °F 30.1 in WSW 2 mph 5 mph 46% 0 in 76 W/m2
18:57 55.8 °F 34.7 °F 30.1 in WNW 4 mph 7 mph 45% 0 in 283 W/m2
19:02 55.6 °F 34.5 °F 30.1 in NW 2.9 mph 7 mph 45% 0 in 269 W/m2
19:07 55.8 °F 34.7 °F 30.1 in NW 4.9 mph 5 mph 45% 0 in 260 W/m2
19:12 55.8 °F 35.2 °F 30.1 in NW 4 mph 8 mph 46% 0 in 84 W/m2
19:17 55.2 °F 35.4 °F 30.1 in WSW 4 mph 7 mph 47% 0 in 63 W/m2
19:22 54.5 °F 35.2 °F 30.1 in NW 4 mph 9 mph 48% 0 in 60 W/m2
19:27 54.1 °F 36 °F 30.1 in WNW 2 mph 7 mph 50% 0 in 60 W/m2
19:32 54.1 °F 36 °F 30.1 in WSW 4 mph 9 mph 50% 0 in 202 W/m2
19:37 54.5 °F 36.7 °F 30.1 in West 0.9 mph 3 mph 51% 0 in 105 W/m2
19:42 54.7 °F 36.3 °F 30.1 in WNW 2 mph 3 mph 50% 0 in 76 W/m2
19:47 54.5 °F 37.2 °F 30.1 in WNW 2 mph 4 mph 52% 0 in 183 W/m2
19:52 54.7 °F 36 °F 30.1 in WNW 2 mph 4 mph 49% 0 in 156 W/m2
19:57 54.9 °F 36.5 °F 30.1 in NW 2 mph 3 mph 50% 0 in 109 W/m2
20:02 54.9 °F 36.5 °F 30.1 in WNW 0.9 mph 3 mph 50% 0 in 93 W/m2
20:07 55 °F 37.2 °F 30.1 in Calm   2 mph 51% 0 in 74 W/m2
20:12 55 °F 36.1 °F 30.1 in West 0.9 mph 2 mph 49% 0 in 70 W/m2
20:17 55 °F 37.2 °F 30.1 in West 0.9 mph 2 mph 51% 0 in 67 W/m2
20:22 54.5 °F 36.3 °F 30.1 in SW 4 mph 4 mph 50% 0 in 39 W/m2
20:27 53.8 °F 36.1 °F 30.1 in West 2 mph 4 mph 51% 0 in 23 W/m2
20:32 53.2 °F 35.6 °F 30.1 in WSW 2.9 mph 5 mph 51% 0 in 16 W/m2
20:37 52.7 °F 35.6 °F 30.1 in WSW 0.9 mph 4 mph 52% 0 in 16 W/m2
20:42 52.3 °F 35.8 °F 30.1 in West 0.9 mph 1 mph 53% 0 in 14 W/m2
20:47 52 °F 35.8 °F 30.1 in WSW 0.9 mph 3 mph 54% 0 in 11 W/m2
20:52 51.4 °F 36.3 °F 30.1 in WSW 2 mph 2 mph 56% 0 in 7 W/m2
20:57 51.1 °F 36.3 °F 30.1 in WSW 2 mph 2 mph 57% 0 in 5 W/m2
21:02 50.5 °F 36 °F 30.1 in Calm   2 mph 57% 0 in 0 W/m2
21:07 50.2 °F 36 °F 30.1 in WSW 0.9 mph 3 mph 58% 0 in 0 W/m2
21:12 49.8 °F 35.6 °F 30.1 in SW 0.9 mph 3 mph 58% 0 in 0 W/m2
21:17 49.6 °F 35.1 °F 30.1 in West 2 mph 3 mph 57% 0 in 0 W/m2
21:22 49.5 °F 35.2 °F 30.1 in West 4 mph 4 mph 58% 0 in 0 W/m2
21:27 49.5 °F 35.2 °F 30.1 in West 0.9 mph 2 mph 58% 0 in 0 W/m2
21:32 49.5 °F 36.5 °F 30.1 in West 0.9 mph 4 mph 61% 0 in 0 W/m2
21:37 48.9 °F 36.9 °F 30.1 in Calm     63% 0 in 0 W/m2
21:42 48.7 °F 37 °F 30.1 in Calm   1 mph 64% 0 in 0 W/m2
21:47 48.2 °F 37.4 °F 30.1 in Calm   2 mph 66% 0 in 0 W/m2
21:52 47.7 °F 37.2 °F 30.1 in Calm   1 mph 67% 0 in 0 W/m2
21:57 47.1 °F 37 °F 30.1 in Calm     68% 0 in 0 W/m2
22:02 46.6 °F 37 °F 30.1 in Calm     69% 0 in 0 W/m2
22:07 46.2 °F 37 °F 30.1 in Calm     70% 0 in 0 W/m2
22:12 45.9 °F 37 °F 30.1 in Calm     71% 0 in 0 W/m2
22:17 45.3 °F 36.5 °F 30.1 in Calm     71% 0 in 0 W/m2
22:22 45 °F 36.5 °F 30.1 in Calm     72% 0 in 0 W/m2
22:27 44.8 °F 36.3 °F 30.1 in Calm     72% 0 in 0 W/m2
22:32 44.4 °F 36 °F 30.1 in Calm     72% 0 in 0 W/m2
22:37 44.2 °F 35.8 °F 30.1 in Calm     72% 0 in 0 W/m2
22:42 44.1 °F 36 °F 30.1 in Calm     73% 0 in 0 W/m2
22:47 44.1 °F 36 °F 30.1 in Calm     73% 0 in 0 W/m2
22:52 43.9 °F 36.1 °F 30.1 in Calm     74% 0 in 0 W/m2
22:57 43.7 °F 36.3 °F 30.1 in Calm     75% 0 in 0 W/m2
23:02 43.5 °F 36.5 °F 30.1 in West 0.9 mph 1 mph 76% 0 in 0 W/m2
23:07 43.7 °F 36.7 °F 30.1 in Calm     76% 0 in 0 W/m2
23:12 43.5 °F 36.5 °F 30.1 in Calm     76% 0 in 0 W/m2
23:17 43.3 °F 36.3 °F 30.1 in Calm     76% 0 in 0 W/m2
23:22 43.3 °F 36.7 °F 30.1 in Calm     77% 0 in 0 W/m2
23:27 43.2 °F 36.7 °F 30.1 in Calm     78% 0 in 0 W/m2
23:32 43 °F 36.7 °F 30.1 in Calm     78% 0 in 0 W/m2
23:37 42.6 °F 36.5 °F 30.1 in Calm     79% 0 in 0 W/m2
23:42 42.4 °F 36.1 °F 30.1 in Calm     78% 0 in 0 W/m2
23:47 42.3 °F 36.1 °F 30.1 in Calm     79% 0 in 0 W/m2
23:52 42.1 °F 36 °F 30.1 in Calm     79% 0 in 0 W/m2
23:57 41.9 °F 35.8 °F 30.1 in Calm     79% 0 in 0 W/m2
Juneau County Weather
Compliments of Weather Underground - 4 mb